Hlavní strana
METAR-TAF:

METAR-TAF

Letiště :

Enfidha-Hammamet

Hammamet, Tunisko

zeměpisná šířka: 36-04-34N, zeměpisná délka: 10-26-19E, výška: 6 m

Aktuální stav počasí

Zpráva byla vytvořena před 35 minutami, v 03:00 UTC
Severozápadní vítr 12 kt
Teplota 12°C
Vlhkost vzduchu 71%
Tlak 1013 hPa
Viditelnost 10 km a více
Žádná oblačnost pod 1500 m, nevyskytují se cumulonimby.

METAR: DTNH 040300Z AUTO 32012KT CAVOK 12/07 Q1013

Čas: 04:35 (03:35 UTC)

Předpověď počasí

Zpráva byla vytvořena před 4 hodinami a 35 minutami, v 23:00 UTC
Předpověď platná od 04 v 00 UTC do 04 v 24 UTC
Severozápadní vítr 9 kt
Viditelnost 10 km a více
Žádná oblačnost pod 1500 m, nevyskytují se cumulonimby.
Změna
od 04 v 00 UTC do 04 v 02 UTC
Severoseverozápadní vítr 15 kt s nárazy do 27 kt
Viditelnost 10 km a více
Polojasno ve výšce 2000 ft

TAF: DTNH 032300Z 0400/0424 32009KT CAVOK BECMG 0400/0402 34015G27KT 9999 SCT020

Stav a předpovědi počasí z více než 4 000 letišť (zprávy METAR a TAF).

Červené a žluté tečky na mapě představují dostupné meteorologické stanice.

Když kurzor umístíte na tečku, zobrazí se název stanice.

Pak kliknutím zobrazíte stav a předpověď počasí.

Chcete-li změnit mapu, kliknutím na zelené tlačítko se znaménkem +mapu přiblížíte, kliknutím na zelené tlačítko se znaménkem – mapu oddálíte a kliknutím na zelené šipky přejdete na sousední mapy.


METAR-TAF: